sensor_id;sensor_type;location;lat;lon;timestamp;temperature;humidity
20370;DHT22;10344;47.592;9.600;2023-02-18T04:05:11;9.50;99.90
20370;DHT22;10344;47.592;9.600;2023-02-18T04:07:38;9.50;99.90
20370;DHT22;10344;47.592;9.600;2023-02-18T04:10:05;9.40;99.90
20370;DHT22;10344;47.592;9.600;2023-02-18T04:12:30;9.40;99.90
20370;DHT22;10344;47.592;9.600;2023-02-18T04:14:56;9.40;99.90
20370;DHT22;10344;47.592;9.600;2023-02-18T04:17:22;9.50;99.90
20370;DHT22;10344;47.592;9.600;2023-02-18T04:19:48;9.50;99.90
20370;DHT22;10344;47.592;9.600;2023-02-18T04:22:13;9.40;99.90
20370;DHT22;10344;47.592;9.600;2023-02-18T04:24:39;9.50;99.90
20370;DHT22;10344;47.592;9.600;2023-02-18T04:27:06;9.50;99.90
20370;DHT22;10344;47.592;9.600;2023-02-18T04:29:33;9.50;99.90
20370;DHT22;10344;47.592;9.600;2023-02-18T04:31:59;9.40;99.90
20370;DHT22;10344;47.592;9.600;2023-02-18T04:34:27;9.60;99.90
20370;DHT22;10344;47.592;9.600;2023-02-18T04:36:53;9.60;99.90
20370;DHT22;10344;47.592;9.600;2023-02-18T04:39:19;9.50;99.90
20370;DHT22;10344;47.592;9.600;2023-02-18T04:41:44;9.50;99.90
20370;DHT22;10344;47.592;9.600;2023-02-18T04:44:11;9.50;99.90
20370;DHT22;10344;47.592;9.600;2023-02-18T04:46:37;9.40;99.90
20370;DHT22;10344;47.592;9.600;2023-02-18T04:49:03;9.40;99.90
20370;DHT22;10344;47.592;9.600;2023-02-18T04:51:29;9.50;99.90
20370;DHT22;10344;47.592;9.600;2023-02-18T04:53:58;9.60;99.90
20370;DHT22;10344;47.592;9.600;2023-02-18T04:56:25;9.70;99.90
20370;DHT22;10344;47.592;9.600;2023-02-18T04:58:52;9.70;99.90
20370;DHT22;10344;47.592;9.600;2023-02-18T05:01:18;9.50;99.90
20370;DHT22;10344;47.592;9.600;2023-02-18T05:03:44;9.40;99.90
20370;DHT22;10344;47.592;9.600;2023-02-18T05:06:11;9.30;99.90
20370;DHT22;10344;47.592;9.600;2023-02-18T05:08:44;9.20;99.90
20370;DHT22;10344;47.592;9.600;2023-02-18T05:11:13;9.20;99.90
20370;DHT22;10344;47.592;9.600;2023-02-18T05:27:18;9.10;99.90
20370;DHT22;10344;47.592;9.600;2023-02-18T05:33:08;9.10;99.90
20370;DHT22;10344;47.592;9.600;2023-02-18T05:35:54;8.90;99.90
20370;DHT22;10344;47.592;9.600;2023-02-18T06:14:52;8.80;99.90
20370;DHT22;10344;47.592;9.600;2023-02-18T06:17:21;8.70;99.90
20370;DHT22;10344;47.592;9.600;2023-02-18T06:19:48;8.70;99.90
20370;DHT22;10344;47.592;9.600;2023-02-18T06:22:13;8.80;99.90
20370;DHT22;10344;47.592;9.600;2023-02-18T06:24:39;8.80;99.90
20370;DHT22;10344;47.592;9.600;2023-02-18T06:27:10;8.80;99.90
20370;DHT22;10344;47.592;9.600;2023-02-18T06:29:43;8.80;99.90
20370;DHT22;10344;47.592;9.600;2023-02-18T06:36:27;8.70;99.90
20370;DHT22;10344;47.592;9.600;2023-02-18T06:39:01;8.80;99.90
20370;DHT22;10344;47.592;9.600;2023-02-18T06:41:31;8.80;99.90
20370;DHT22;10344;47.592;9.600;2023-02-18T06:43:58;8.90;99.90
20370;DHT22;10344;47.592;9.600;2023-02-18T06:46:24;8.80;99.90
20370;DHT22;10344;47.592;9.600;2023-02-18T06:48:50;8.80;99.90
20370;DHT22;10344;47.592;9.600;2023-02-18T06:51:15;8.80;99.90
20370;DHT22;10344;47.592;9.600;2023-02-18T06:53:43;8.80;99.90
20370;DHT22;10344;47.592;9.600;2023-02-18T06:56:09;8.90;99.90
20370;DHT22;10344;47.592;9.600;2023-02-18T06:58:35;8.90;99.90
20370;DHT22;10344;47.592;9.600;2023-02-18T07:01:00;8.90;99.90
20370;DHT22;10344;47.592;9.600;2023-02-18T07:03:26;8.90;99.90
20370;DHT22;10344;47.592;9.600;2023-02-18T07:05:52;9.00;99.90
20370;DHT22;10344;47.592;9.600;2023-02-18T07:08:19;9.00;99.90
20370;DHT22;10344;47.592;9.600;2023-02-18T07:14:09;9.10;99.90
20370;DHT22;10344;47.592;9.600;2023-02-18T07:16:38;9.00;99.90
20370;DHT22;10344;47.592;9.600;2023-02-18T07:22:27;8.80;99.90
20370;DHT22;10344;47.592;9.600;2023-02-18T07:24:53;8.80;99.90
20370;DHT22;10344;47.592;9.600;2023-02-18T07:27:22;8.80;99.90
20370;DHT22;10344;47.592;9.600;2023-02-18T07:29:49;8.80;99.90
20370;DHT22;10344;47.592;9.600;2023-02-18T07:32:16;8.70;99.90
20370;DHT22;10344;47.592;9.600;2023-02-18T07:34:42;8.70;99.90
20370;DHT22;10344;47.592;9.600;2023-02-18T07:37:09;8.90;99.90
20370;DHT22;10344;47.592;9.600;2023-02-18T07:39:38;8.90;99.90
20370;DHT22;10344;47.592;9.600;2023-02-18T07:42:06;9.00;99.90
20370;DHT22;10344;47.592;9.600;2023-02-18T07:44:32;9.10;99.90
20370;DHT22;10344;47.592;9.600;2023-02-18T07:46:58;9.00;99.90
20370;DHT22;10344;47.592;9.600;2023-02-18T07:49:53;9.10;99.90
20370;DHT22;10344;47.592;9.600;2023-02-18T07:52:31;9.20;99.90
20370;DHT22;10344;47.592;9.600;2023-02-18T09:27:40;12.50;99.90
20370;DHT22;10344;47.592;9.600;2023-02-18T09:30:06;12.60;99.90
20370;DHT22;10344;47.592;9.600;2023-02-18T09:50:50;13.20;99.90
20370;DHT22;10344;47.592;9.600;2023-02-18T09:53:17;13.20;99.90
20370;DHT22;10344;47.592;9.600;2023-02-18T09:55:44;13.10;99.90
20370;DHT22;10344;47.592;9.600;2023-02-18T10:08:45;14.60;99.90
20370;DHT22;10344;47.592;9.600;2023-02-18T10:19:46;14.10;99.90
20370;DHT22;10344;47.592;9.600;2023-02-18T10:22:16;13.80;99.90
20370;DHT22;10344;47.592;9.600;2023-02-18T10:24:49;13.80;99.90
20370;DHT22;10344;47.592;9.600;2023-02-18T10:27:52;13.80;99.90
20370;DHT22;10344;47.592;9.600;2023-02-18T10:31:02;14.00;99.90
20370;DHT22;10344;47.592;9.600;2023-02-18T10:36:22;14.10;99.90
20370;DHT22;10344;47.592;9.600;2023-02-18T10:41:33;14.30;99.90
20370;DHT22;10344;47.592;9.600;2023-02-18T10:44:19;14.50;99.90
20370;DHT22;10344;47.592;9.600;2023-02-18T10:52:37;15.30;99.90
20370;DHT22;10344;47.592;9.600;2023-02-18T10:55:10;15.40;99.90
20370;DHT22;10344;47.592;9.600;2023-02-18T10:57:50;15.60;99.90
20370;DHT22;10344;47.592;9.600;2023-02-18T11:00:24;15.90;99.90
20370;DHT22;10344;47.592;9.600;2023-02-18T11:03:21;16.10;99.90
20370;DHT22;10344;47.592;9.600;2023-02-18T11:08:37;16.60;99.90
20370;DHT22;10344;47.592;9.600;2023-02-18T11:11:22;17.30;99.90
20370;DHT22;10344;47.592;9.600;2023-02-18T11:14:06;18.00;99.90
20370;DHT22;10344;47.592;9.600;2023-02-18T11:17:17;18.50;99.90
20370;DHT22;10344;47.592;9.600;2023-02-18T11:20:00;19.00;99.90
20370;DHT22;10344;47.592;9.600;2023-02-18T11:22:50;19.20;99.90
20370;DHT22;10344;47.592;9.600;2023-02-18T11:26:03;19.20;99.90
20370;DHT22;10344;47.592;9.600;2023-02-18T11:28:55;19.10;99.90
20370;DHT22;10344;47.592;9.600;2023-02-18T11:31:50;19.00;99.90
20370;DHT22;10344;47.592;9.600;2023-02-18T11:34:27;18.90;99.90
20370;DHT22;10344;47.592;9.600;2023-02-18T11:36:55;18.90;99.90
20370;DHT22;10344;47.592;9.600;2023-02-18T11:39:35;18.70;99.90
20370;DHT22;10344;47.592;9.600;2023-02-18T11:42:30;18.40;99.90
20370;DHT22;10344;47.592;9.600;2023-02-18T11:48:22;17.80;99.90
20370;DHT22;10344;47.592;9.600;2023-02-18T11:51:04;17.70;99.90
20370;DHT22;10344;47.592;9.600;2023-02-18T11:54:31;17.60;99.90
20370;DHT22;10344;47.592;9.600;2023-02-18T11:57:11;17.50;99.90
20370;DHT22;10344;47.592;9.600;2023-02-18T12:00:02;17.30;99.90
20370;DHT22;10344;47.592;9.600;2023-02-18T12:02:39;17.10;99.90
20370;DHT22;10344;47.592;9.600;2023-02-18T12:05:48;17.10;99.90
20370;DHT22;10344;47.592;9.600;2023-02-18T12:11:43;16.90;99.90
20370;DHT22;10344;47.592;9.600;2023-02-18T12:14:36;16.60;99.90
20370;DHT22;10344;47.592;9.600;2023-02-18T12:27:19;16.00;99.90
20370;DHT22;10344;47.592;9.600;2023-02-18T12:32:43;15.90;99.90
20370;DHT22;10344;47.592;9.600;2023-02-18T12:59:32;16.00;99.90
20370;DHT22;10344;47.592;9.600;2023-02-18T13:13:36;16.10;99.90
20370;DHT22;10344;47.592;9.600;2023-02-18T13:16:33;16.10;99.90
20370;DHT22;10344;47.592;9.600;2023-02-18T13:19:24;16.00;99.90
20370;DHT22;10344;47.592;9.600;2023-02-18T13:22:02;16.10;99.90
20370;DHT22;10344;47.592;9.600;2023-02-18T13:24:36;16.20;99.90
20370;DHT22;10344;47.592;9.600;2023-02-18T13:27:35;16.20;99.90
20370;DHT22;10344;47.592;9.600;2023-02-18T13:39:17;16.60;99.90
20370;DHT22;10344;47.592;9.600;2023-02-18T13:41:48;16.60;99.90
20370;DHT22;10344;47.592;9.600;2023-02-18T13:47:42;16.60;99.90
20370;DHT22;10344;47.592;9.600;2023-02-18T13:50:30;16.70;99.90
20370;DHT22;10344;47.592;9.600;2023-02-18T13:58:51;16.60;99.90
20370;DHT22;10344;47.592;9.600;2023-02-18T14:13:18;16.40;99.90
20370;DHT22;10344;47.592;9.600;2023-02-18T14:16:10;16.30;99.90
20370;DHT22;10344;47.592;9.600;2023-02-18T14:19:01;16.30;99.90
20370;DHT22;10344;47.592;9.600;2023-02-18T14:25:39;16.30;99.90
20370;DHT22;10344;47.592;9.600;2023-02-18T14:29:03;16.20;99.90
20370;DHT22;10344;47.592;9.600;2023-02-18T14:31:49;16.00;99.90
20370;DHT22;10344;47.592;9.600;2023-02-18T14:35:21;16.00;99.90
20370;DHT22;10344;47.592;9.600;2023-02-18T14:41:29;16.00;99.90
20370;DHT22;10344;47.592;9.600;2023-02-18T14:47:34;15.80;99.90
20370;DHT22;10344;47.592;9.600;2023-02-18T14:50:30;16.00;99.90
20370;DHT22;10344;47.592;9.600;2023-02-18T14:53:11;15.90;99.90
20370;DHT22;10344;47.592;9.600;2023-02-18T14:56:01;15.90;99.90
20370;DHT22;10344;47.592;9.600;2023-02-18T14:59:09;15.90;99.90
20370;DHT22;10344;47.592;9.600;2023-02-18T15:01:37;15.90;99.90
20370;DHT22;10344;47.592;9.600;2023-02-18T15:04:13;15.90;99.90
20370;DHT22;10344;47.592;9.600;2023-02-18T15:07:01;15.70;99.90
20370;DHT22;10344;47.592;9.600;2023-02-18T15:09:31;15.60;99.90
20370;DHT22;10344;47.592;9.600;2023-02-18T15:12:06;15.50;99.90
20370;DHT22;10344;47.592;9.600;2023-02-18T15:15:03;15.60;99.90
20370;DHT22;10344;47.592;9.600;2023-02-18T15:18:02;15.40;99.90
20370;DHT22;10344;47.592;9.600;2023-02-18T15:20:33;15.30;99.90
20370;DHT22;10344;47.592;9.600;2023-02-18T15:23:08;15.10;99.90
20370;DHT22;10344;47.592;9.600;2023-02-18T15:25:52;15.10;99.90
20370;DHT22;10344;47.592;9.600;2023-02-18T15:28:32;15.00;99.90
20370;DHT22;10344;47.592;9.600;2023-02-18T15:31:03;14.90;99.90
20370;DHT22;10344;47.592;9.600;2023-02-18T15:33:31;14.90;99.90
20370;DHT22;10344;47.592;9.600;2023-02-18T15:36:04;14.80;99.90
20370;DHT22;10344;47.592;9.600;2023-02-18T15:38:34;14.70;99.90
20370;DHT22;10344;47.592;9.600;2023-02-18T15:41:11;14.60;99.90
20370;DHT22;10344;47.592;9.600;2023-02-18T15:43:59;14.40;99.90
20370;DHT22;10344;47.592;9.600;2023-02-18T15:49:53;14.30;99.90
20370;DHT22;10344;47.592;9.600;2023-02-18T15:56:08;14.00;99.90
20370;DHT22;10344;47.592;9.600;2023-02-18T16:06:24;13.80;99.90
20370;DHT22;10344;47.592;9.600;2023-02-18T16:15:28;13.50;99.90
20370;DHT22;10344;47.592;9.600;2023-02-18T16:21:43;13.30;99.90
20370;DHT22;10344;47.592;9.600;2023-02-18T16:24:37;13.20;99.90
20370;DHT22;10344;47.592;9.600;2023-02-18T16:27:15;13.00;99.90
20370;DHT22;10344;47.592;9.600;2023-02-18T16:30:06;12.90;99.90
20370;DHT22;10344;47.592;9.600;2023-02-18T16:35:54;12.60;99.90
20370;DHT22;10344;47.592;9.600;2023-02-18T16:39:02;12.50;99.90
20370;DHT22;10344;47.592;9.600;2023-02-18T16:42:13;12.50;99.90
20370;DHT22;10344;47.592;9.600;2023-02-18T16:44:40;12.50;99.90
20370;DHT22;10344;47.592;9.600;2023-02-18T16:47:27;12.40;99.90
20370;DHT22;10344;47.592;9.600;2023-02-18T16:53:59;12.30;99.90
20370;DHT22;10344;47.592;9.600;2023-02-18T16:59:53;12.30;99.90
20370;DHT22;10344;47.592;9.600;2023-02-18T17:02:59;12.30;99.90
20370;DHT22;10344;47.592;9.600;2023-02-18T17:05:41;12.30;99.90
20370;DHT22;10344;47.592;9.600;2023-02-18T17:08:26;12.20;99.90
20370;DHT22;10344;47.592;9.600;2023-02-18T17:11:44;12.20;99.90
20370;DHT22;10344;47.592;9.600;2023-02-18T17:14:19;12.20;99.90
20370;DHT22;10344;47.592;9.600;2023-02-18T17:17:11;12.20;99.90
20370;DHT22;10344;47.592;9.600;2023-02-18T17:23:26;12.10;99.90
20370;DHT22;10344;47.592;9.600;2023-02-18T17:26:27;12.00;99.90
20370;DHT22;10344;47.592;9.600;2023-02-18T17:32:19;11.90;99.90
20370;DHT22;10344;47.592;9.600;2023-02-18T17:34:50;11.70;99.90
20370;DHT22;10344;47.592;9.600;2023-02-18T17:37:22;11.70;99.90
20370;DHT22;10344;47.592;9.600;2023-02-18T17:40:23;11.60;99.90
20370;DHT22;10344;47.592;9.600;2023-02-18T17:43:24;11.50;99.90
20370;DHT22;10344;47.592;9.600;2023-02-18T17:46:50;11.30;99.90
20370;DHT22;10344;47.592;9.600;2023-02-18T17:55:42;11.10;99.90
20370;DHT22;10344;47.592;9.600;2023-02-18T17:58:11;10.90;99.90
20370;DHT22;10344;47.592;9.600;2023-02-18T18:00:45;10.80;99.90
20370;DHT22;10344;47.592;9.600;2023-02-18T18:03:42;10.70;99.90
20370;DHT22;10344;47.592;9.600;2023-02-18T18:06:34;10.60;99.90
20370;DHT22;10344;47.592;9.600;2023-02-18T18:09:06;10.60;99.90
20370;DHT22;10344;47.592;9.600;2023-02-18T18:11:45;10.60;99.90
20370;DHT22;10344;47.592;9.600;2023-02-18T18:14:13;10.60;99.90
20370;DHT22;10344;47.592;9.600;2023-02-18T18:16:43;10.50;99.90
20370;DHT22;10344;47.592;9.600;2023-02-18T18:19:11;10.40;99.90
20370;DHT22;10344;47.592;9.600;2023-02-18T18:21:39;10.20;99.90
20370;DHT22;10344;47.592;9.600;2023-02-18T18:24:12;10.10;99.90
20370;DHT22;10344;47.592;9.600;2023-02-18T18:26:38;10.10;99.90
20370;DHT22;10344;47.592;9.600;2023-02-18T18:29:05;10.10;99.90
20370;DHT22;10344;47.592;9.600;2023-02-18T18:31:30;10.10;99.90
20370;DHT22;10344;47.592;9.600;2023-02-18T18:34:03;10.00;99.90
20370;DHT22;10344;47.592;9.600;2023-02-18T18:36:35;10.00;99.90
20370;DHT22;10344;47.592;9.600;2023-02-18T18:39:06;10.00;99.90
20370;DHT22;10344;47.592;9.600;2023-02-18T18:41:34;10.20;99.90
20370;DHT22;10344;47.592;9.600;2023-02-18T18:44:02;10.30;99.90
20370;DHT22;10344;47.592;9.600;2023-02-18T18:46:28;10.40;99.90
20370;DHT22;10344;47.592;9.600;2023-02-18T18:48:54;10.40;99.90
20370;DHT22;10344;47.592;9.600;2023-02-18T18:51:28;10.60;99.90
20370;DHT22;10344;47.592;9.600;2023-02-18T18:53:55;10.70;99.90
20370;DHT22;10344;47.592;9.600;2023-02-18T18:56:21;10.70;99.90
20370;DHT22;10344;47.592;9.600;2023-02-18T18:58:50;10.80;99.90
20370;DHT22;10344;47.592;9.600;2023-02-18T19:01:21;10.90;99.90
20370;DHT22;10344;47.592;9.600;2023-02-18T19:03:52;11.10;99.90
20370;DHT22;10344;47.592;9.600;2023-02-18T19:06:18;11.10;99.90
20370;DHT22;10344;47.592;9.600;2023-02-18T19:08:45;11.20;99.90
20370;DHT22;10344;47.592;9.600;2023-02-18T19:11:13;11.10;99.90
20370;DHT22;10344;47.592;9.600;2023-02-18T19:13:45;11.00;99.90
20370;DHT22;10344;47.592;9.600;2023-02-18T19:16:12;11.00;99.90
20370;DHT22;10344;47.592;9.600;2023-02-18T19:18:43;11.00;99.90
20370;DHT22;10344;47.592;9.600;2023-02-18T19:21:11;11.00;99.90
20370;DHT22;10344;47.592;9.600;2023-02-18T19:23:42;10.90;99.90
20370;DHT22;10344;47.592;9.600;2023-02-18T19:26:08;10.90;99.90
20370;DHT22;10344;47.592;9.600;2023-02-18T19:28:34;10.90;99.90
20370;DHT22;10344;47.592;9.600;2023-02-18T19:31:13;10.90;99.90
20370;DHT22;10344;47.592;9.600;2023-02-18T19:33:40;10.80;99.90
20370;DHT22;10344;47.592;9.600;2023-02-18T19:36:07;10.90;99.90
20370;DHT22;10344;47.592;9.600;2023-02-18T19:38:34;11.00;99.90
20370;DHT22;10344;47.592;9.600;2023-02-18T19:41:10;11.00;99.90
20370;DHT22;10344;47.592;9.600;2023-02-18T19:43:37;10.90;99.90
20370;DHT22;10344;47.592;9.600;2023-02-18T19:46:09;10.90;99.90
20370;DHT22;10344;47.592;9.600;2023-02-18T19:48:38;10.80;99.90
20370;DHT22;10344;47.592;9.600;2023-02-18T19:51:06;10.60;99.90
20370;DHT22;10344;47.592;9.600;2023-02-18T19:53:36;10.70;99.90
20370;DHT22;10344;47.592;9.600;2023-02-18T19:56:08;10.70;99.90
20370;DHT22;10344;47.592;9.600;2023-02-18T19:58:39;10.70;99.90
20370;DHT22;10344;47.592;9.600;2023-02-18T20:01:13;10.40;99.90
20370;DHT22;10344;47.592;9.600;2023-02-18T20:04:03;10.30;99.90
20370;DHT22;10344;47.592;9.600;2023-02-18T20:06:34;10.20;99.90
20370;DHT22;10344;47.592;9.600;2023-02-18T20:09:13;10.20;99.90
20370;DHT22;10344;47.592;9.600;2023-02-18T20:11:49;10.20;99.90
20370;DHT22;10344;47.592;9.600;2023-02-18T20:14:18;10.10;99.90
20370;DHT22;10344;47.592;9.600;2023-02-18T20:16:52;10.10;99.90
20370;DHT22;10344;47.592;9.600;2023-02-18T20:19:18;10.10;99.90
20370;DHT22;10344;47.592;9.600;2023-02-18T20:21:45;10.00;99.90
20370;DHT22;10344;47.592;9.600;2023-02-18T20:24:11;10.10;99.90
20370;DHT22;10344;47.592;9.600;2023-02-18T20:26:40;10.10;99.90
20370;DHT22;10344;47.592;9.600;2023-02-18T20:29:15;10.10;99.90
20370;DHT22;10344;47.592;9.600;2023-02-18T20:31:48;10.10;99.90
20370;DHT22;10344;47.592;9.600;2023-02-18T20:34:15;10.10;99.90
20370;DHT22;10344;47.592;9.600;2023-02-18T20:36:42;10.10;99.90
20370;DHT22;10344;47.592;9.600;2023-02-18T20:39:13;10.00;99.90
20370;DHT22;10344;47.592;9.600;2023-02-18T20:41:40;10.00;99.90
20370;DHT22;10344;47.592;9.600;2023-02-18T20:44:13;10.00;99.90
20370;DHT22;10344;47.592;9.600;2023-02-18T20:46:42;10.10;99.90
20370;DHT22;10344;47.592;9.600;2023-02-18T20:49:18;10.20;99.90
20370;DHT22;10344;47.592;9.600;2023-02-18T20:51:45;10.30;99.90
20370;DHT22;10344;47.592;9.600;2023-02-18T20:54:16;10.30;99.90
20370;DHT22;10344;47.592;9.600;2023-02-18T20:57:09;10.50;99.90
20370;DHT22;10344;47.592;9.600;2023-02-18T20:59:39;10.60;99.90
20370;DHT22;10344;47.592;9.600;2023-02-18T21:02:05;10.70;99.90
20370;DHT22;10344;47.592;9.600;2023-02-18T21:04:36;10.70;99.90
20370;DHT22;10344;47.592;9.600;2023-02-18T21:07:03;10.70;99.90
20370;DHT22;10344;47.592;9.600;2023-02-18T21:09:34;10.60;99.90
20370;DHT22;10344;47.592;9.600;2023-02-18T21:12:01;10.60;99.90
20370;DHT22;10344;47.592;9.600;2023-02-18T21:14:28;10.60;99.90
20370;DHT22;10344;47.592;9.600;2023-02-18T21:17:08;10.70;99.90
20370;DHT22;10344;47.592;9.600;2023-02-18T21:19:41;10.70;99.90
20370;DHT22;10344;47.592;9.600;2023-02-18T21:22:37;10.70;99.90
20370;DHT22;10344;47.592;9.600;2023-02-18T21:25:07;10.70;99.90
20370;DHT22;10344;47.592;9.600;2023-02-18T21:27:33;10.70;99.90
20370;DHT22;10344;47.592;9.600;2023-02-18T21:30:00;10.80;99.90
20370;DHT22;10344;47.592;9.600;2023-02-18T21:32:28;10.80;99.90
20370;DHT22;10344;47.592;9.600;2023-02-18T21:34:56;10.80;99.90
20370;DHT22;10344;47.592;9.600;2023-02-18T21:37:45;10.80;99.90
20370;DHT22;10344;47.592;9.600;2023-02-18T21:40:18;10.80;99.90
20370;DHT22;10344;47.592;9.600;2023-02-18T21:42:59;10.90;99.90
20370;DHT22;10344;47.592;9.600;2023-02-18T21:45:30;10.90;99.90
20370;DHT22;10344;47.592;9.600;2023-02-18T21:48:04;10.90;99.90
20370;DHT22;10344;47.592;9.600;2023-02-18T21:50:49;10.80;99.90
20370;DHT22;10344;47.592;9.600;2023-02-18T21:53:27;10.70;99.90
20370;DHT22;10344;47.592;9.600;2023-02-18T21:55:56;10.80;99.90
20370;DHT22;10344;47.592;9.600;2023-02-18T21:58:22;10.80;99.90
20370;DHT22;10344;47.592;9.600;2023-02-18T22:00:55;10.80;99.90
20370;DHT22;10344;47.592;9.600;2023-02-18T22:03:22;10.90;99.90
20370;DHT22;10344;47.592;9.600;2023-02-18T22:05:50;10.90;99.90
20370;DHT22;10344;47.592;9.600;2023-02-18T22:08:25;10.90;99.90
20370;DHT22;10344;47.592;9.600;2023-02-18T22:10:51;10.90;99.90
20370;DHT22;10344;47.592;9.600;2023-02-18T22:13:31;10.90;99.90
20370;DHT22;10344;47.592;9.600;2023-02-18T22:16:08;10.90;99.90
20370;DHT22;10344;47.592;9.600;2023-02-18T22:18:43;10.90;99.90
20370;DHT22;10344;47.592;9.600;2023-02-18T22:21:13;11.10;99.90
20370;DHT22;10344;47.592;9.600;2023-02-18T22:23:46;11.00;99.90
20370;DHT22;10344;47.592;9.600;2023-02-18T22:26:17;11.00;99.90
20370;DHT22;10344;47.592;9.600;2023-02-18T22:28:56;10.90;99.90
20370;DHT22;10344;47.592;9.600;2023-02-18T22:31:24;11.10;99.90
20370;DHT22;10344;47.592;9.600;2023-02-18T22:33:57;11.10;99.90
20370;DHT22;10344;47.592;9.600;2023-02-18T22:36:25;11.10;99.90
20370;DHT22;10344;47.592;9.600;2023-02-18T22:38:51;11.10;99.90
20370;DHT22;10344;47.592;9.600;2023-02-18T22:41:25;11.00;99.90
20370;DHT22;10344;47.592;9.600;2023-02-18T22:43:55;11.00;99.90
20370;DHT22;10344;47.592;9.600;2023-02-18T22:46:21;11.10;99.90
20370;DHT22;10344;47.592;9.600;2023-02-18T22:48:50;11.10;99.90
20370;DHT22;10344;47.592;9.600;2023-02-18T22:51:32;11.10;99.90
20370;DHT22;10344;47.592;9.600;2023-02-18T22:54:00;11.00;99.90
20370;DHT22;10344;47.592;9.600;2023-02-18T22:56:43;10.90;99.90
20370;DHT22;10344;47.592;9.600;2023-02-18T22:59:20;11.00;99.90
20370;DHT22;10344;47.592;9.600;2023-02-18T23:01:48;11.10;99.90
20370;DHT22;10344;47.592;9.600;2023-02-18T23:04:18;11.10;99.90
20370;DHT22;10344;47.592;9.600;2023-02-18T23:06:50;11.10;99.90
20370;DHT22;10344;47.592;9.600;2023-02-18T23:09:40;11.10;99.90
20370;DHT22;10344;47.592;9.600;2023-02-18T23:12:07;11.10;99.90
20370;DHT22;10344;47.592;9.600;2023-02-18T23:14:33;11.20;99.90
20370;DHT22;10344;47.592;9.600;2023-02-18T23:17:02;11.20;99.90
20370;DHT22;10344;47.592;9.600;2023-02-18T23:19:59;11.30;99.90
20370;DHT22;10344;47.592;9.600;2023-02-18T23:22:32;11.20;99.90
20370;DHT22;10344;47.592;9.600;2023-02-18T23:25:06;11.20;99.90
20370;DHT22;10344;47.592;9.600;2023-02-18T23:27:36;11.10;99.90
20370;DHT22;10344;47.592;9.600;2023-02-18T23:30:11;11.10;99.90
20370;DHT22;10344;47.592;9.600;2023-02-18T23:32:37;11.00;99.90
20370;DHT22;10344;47.592;9.600;2023-02-18T23:35:04;11.00;99.90
20370;DHT22;10344;47.592;9.600;2023-02-18T23:37:35;10.90;99.90
20370;DHT22;10344;47.592;9.600;2023-02-18T23:40:30;10.90;99.90
20370;DHT22;10344;47.592;9.600;2023-02-18T23:42:55;11.00;99.90
20370;DHT22;10344;47.592;9.600;2023-02-18T23:45:23;11.10;99.90
20370;DHT22;10344;47.592;9.600;2023-02-18T23:47:48;11.10;99.90
20370;DHT22;10344;47.592;9.600;2023-02-18T23:50:14;11.00;99.90
20370;DHT22;10344;47.592;9.600;2023-02-18T23:52:42;10.80;99.90
20370;DHT22;10344;47.592;9.600;2023-02-18T23:55:10;10.70;99.90
20370;DHT22;10344;47.592;9.600;2023-02-18T23:57:36;10.60;99.90
